TimeCST,TemperatureF,Dew PointF,Humidity,Sea Level PressureIn,VisibilityMPH,Wind Direction,Wind SpeedMPH,Gust SpeedMPH,PrecipitationIn,Events,Conditions,WindDirDegrees,DateUTC
12:25 AM,42.8,41.0,93,30.38,3.0,NNE,8.1,-,0.03,Rain,Rain,30,2013-11-23 06:25:00
12:37 AM,42.8,41.0,93,30.38,4.0,North,6.9,-,0.05,Rain,Rain,10,2013-11-23 06:37:00
12:53 AM,42.1,41.0,96,30.38,2.5,NNE,9.2,-,0.11,Rain,Heavy Rain,30,2013-11-23 06:53:00
1:09 AM,42.8,41.0,93,30.39,3.0,NNE,11.5,-,0.06,Rain,Rain,20,2013-11-23 07:09:00
1:53 AM,42.1,39.9,92,30.39,2.0,NE,6.9,-,0.17,Rain,Heavy Rain,40,2013-11-23 07:53:00
2:00 AM,42.8,41.0,93,30.39,2.5,NNE,9.2,-,0.02,Rain,Rain,30,2013-11-23 08:00:00
2:07 AM,42.8,41.0,93,30.39,4.0,NNE,10.4,-,0.02,Rain,Light Rain,30,2013-11-23 08:07:00
2:53 AM,42.1,39.9,92,30.39,4.0,NE,10.4,-,0.08,Rain,Light Rain,40,2013-11-23 08:53:00
3:53 AM,42.1,39.9,92,30.39,4.0,NNE,10.4,-,0.02,Rain,Light Rain,30,2013-11-23 09:53:00
4:53 AM,41.0,39.0,93,30.40,8.0,NE,10.4,19.6,0.00,,Overcast,40,2013-11-23 10:53:00
5:03 AM,41.0,39.2,93,30.40,7.0,NE,8.1,-,N/A,,Overcast,40,2013-11-23 11:03:00
5:53 AM,41.0,39.9,96,30.42,6.0,NE,10.4,-,0.00,Rain,Light Rain,40,2013-11-23 11:53:00
6:17 AM,41.0,39.2,93,30.42,10.0,NE,11.5,-,0.00,,Overcast,40,2013-11-23 12:17:00
6:25 AM,41.0,37.4,87,30.42,10.0,NE,10.4,-,0.00,,Overcast,40,2013-11-23 12:25:00
6:34 AM,41.0,37.4,87,30.42,10.0,NE,12.7,19.6,0.00,,Overcast,40,2013-11-23 12:34:00
6:53 AM,41.0,37.9,89,30.43,9.0,NE,13.8,-,0.00,,Overcast,50,2013-11-23 12:53:00
7:09 AM,41.0,37.4,87,30.44,8.0,NE,11.5,18.4,N/A,,Overcast,50,2013-11-23 13:09:00
7:53 AM,41.0,37.9,89,30.46,10.0,NE,10.4,-,N/A,,Overcast,50,2013-11-23 13:53:00
8:43 AM,41.0,37.4,87,30.47,10.0,NE,15.0,-,N/A,,Overcast,40,2013-11-23 14:43:00
8:53 AM,41.0,37.0,86,30.48,10.0,NE,9.2,18.4,N/A,,Overcast,40,2013-11-23 14:53:00
9:39 AM,41.0,37.4,87,30.50,10.0,NE,12.7,-,N/A,,Overcast,40,2013-11-23 15:39:00
9:53 AM,42.1,37.0,82,30.51,10.0,NNE,12.7,-,N/A,,Overcast,30,2013-11-23 15:53:00
10:11 AM,42.8,37.4,81,30.50,10.0,NE,11.5,-,N/A,,Overcast,40,2013-11-23 16:11:00
10:53 AM,43.0,37.9,82,30.51,10.0,NNE,12.7,-,N/A,,Overcast,20,2013-11-23 16:53:00
11:41 AM,44.6,37.4,76,30.48,10.0,NNE,12.7,21.9,N/A,,Overcast,30,2013-11-23 17:41:00
11:50 AM,44.6,37.4,76,30.48,10.0,NNE,13.8,-,N/A,,Overcast,30,2013-11-23 17:50:00
11:53 AM,44.1,37.9,79,30.49,10.0,NE,11.5,-,N/A,,Overcast,40,2013-11-23 17:53:00
12:00 PM,44.6,37.4,76,30.49,10.0,NNE,12.7,-,N/A,,Overcast,30,2013-11-23 18:00:00
12:18 PM,44.6,37.4,76,30.48,10.0,North,13.8,-,N/A,,Overcast,10,2013-11-23 18:18:00
12:53 PM,46.0,37.9,73,30.47,10.0,NE,10.4,-,N/A,,Overcast,50,2013-11-23 18:53:00
1:53 PM,46.9,37.0,68,30.43,10.0,NE,16.1,23.0,N/A,,Overcast,40,2013-11-23 19:53:00
2:53 PM,46.9,36.0,66,30.47,10.0,NNE,12.7,-,N/A,,Overcast,20,2013-11-23 20:53:00
3:53 PM,46.0,34.0,63,30.48,10.0,NNE,11.5,19.6,N/A,,Overcast,30,2013-11-23 21:53:00
4:53 PM,46.0,33.1,61,30.48,10.0,NNE,10.4,-,N/A,,Mostly Cloudy,30,2013-11-23 22:53:00
5:53 PM,43.0,30.9,62,30.50,10.0,NNE,11.5,-,N/A,,Partly Cloudy,30,2013-11-23 23:53:00
6:53 PM,43.0,30.0,60,30.51,10.0,NNE,10.4,-,N/A,,Partly Cloudy,30,2013-11-24 00:53:00
7:53 PM,41.0,28.0,60,30.52,10.0,NNE,8.1,-,N/A,,Clear,30,2013-11-24 01:53:00
8:53 PM,39.9,27.0,60,30.52,10.0,NE,10.4,-,N/A,,Clear,40,2013-11-24 02:53:00
9:53 PM,39.0,27.0,62,30.53,10.0,NE,6.9,-,N/A,,Clear,40,2013-11-24 03:53:00
10:53 PM,37.9,25.0,60,30.53,10.0,NE,5.8,-,N/A,,Clear,40,2013-11-24 04:53:00
11:53 PM,36.0,26.1,67,30.53,10.0,NE,5.8,-,N/A,,Clear,40,2013-11-24 05:53:00